^^
Station Historical Data
 
Daily Summary for May 25, 2017 Units:  English    Metric   Both
« Previous Day
Next Day »
Daily Weekly Monthly Yearly Custom
  Current: High: Low: Average:
Temperature: 72.1 °F 73.8 °F 59.9 °F 65.4 °F
Dew Point: 56.5 °F 66.1 °F 55.7 °F 59.9 °F
Humidity: 58% 98% 55% 84%
Wind Speed: 4.3mph 10.5mph 0.0mph 2mph
Wind Gust: 10.4mph 21.9mph - -
WindSSE - - SSE
Pressure: 29.65 in 29.66 in 29.50 in -
Precipitation: 0.34 in      
Historical Graphs
 
 
Tabular Data for May 25, 2017
Time Temperature Dew Point Pressure Wind Wind Speed Wind Gust Humidity Rainfall Rate (Hourly) solar Conditions
00:03 66.7 °F 66.1 °F 29.53 in South 1.0 mph 4.6 mph 98% 0.00 in WeatherDisplay:10.37 W/m2 RA
00:08 66.7 °F 66.1 °F 29.53 in Calm     98% 0.00 in WeatherDisplay:10.37 W/m2 RA
00:13 66.7 °F 66.1 °F 29.53 in Calm     98% 0.00 in WeatherDisplay:10.37 W/m2 CLR
00:18 66.7 °F 66.1 °F 29.53 in Calm     98% 0.00 in WeatherDisplay:10.37 W/m2 CLR
00:23 66.7 °F 66.1 °F 29.53 in Calm     98% 0.00 in WeatherDisplay:10.37 W/m2 CLR
00:28 66.6 °F 66.0 °F 29.53 in Calm     98% 0.00 in WeatherDisplay:10.37 W/m2 CLR
00:33 66.6 °F 66.0 °F 29.53 in Calm     98% 0.00 in WeatherDisplay:10.37 W/m2 CLR
00:38 66.6 °F 66.0 °F 29.53 in Calm     98% 0.00 in WeatherDisplay:10.37 W/m2 CLR
00:43 66.6 °F 66.0 °F 29.53 in Calm     98% 0.00 in WeatherDisplay:10.37 W/m2 CLR
00:48 66.6 °F 66.0 °F 29.53 in Calm     98% 0.00 in WeatherDisplay:10.37 W/m2 CLR
00:53 66.6 °F 66.0 °F 29.53 in Calm     98% 0.00 in WeatherDisplay:10.37 W/m2 CLR
00:59 66.5 °F 65.9 °F 29.54 in Calm     98% 0.01 in WeatherDisplay:10.37 W/m2 RA
01:04 66.5 °F 65.9 °F 29.55 in Calm     98% 0.09 in WeatherDisplay:10.37 W/m2 RA
01:09 65.4 °F 64.5 °F 29.54 in NNE 5.2 mph 9.2 mph 97% 0.24 in WeatherDisplay:10.37 W/m2 RA
01:14 64.7 °F 63.8 °F 29.54 in Calm     97% 0.29 in WeatherDisplay:10.37 W/m2 RA
01:19 64.6 °F 63.7 °F 29.54 in Calm     97% 0.29 in WeatherDisplay:10.37 W/m2 RA
01:24 64.5 °F 63.6 °F 29.55 in Calm     97% 0.29 in WeatherDisplay:10.37 W/m2
01:29 64.6 °F 64.0 °F 29.56 in Calm     98% 0.29 in WeatherDisplay:10.37 W/m2 CLR
01:34 64.8 °F 64.2 °F 29.55 in SSE 0.8 mph   98% 0.30 in WeatherDisplay:10.37 W/m2 RA
01:39 64.9 °F 64.3 °F 29.57 in SSE 1.1 mph 4.6 mph 98% 0.30 in WeatherDisplay:10.37 W/m2 RA
01:44 65.2 °F 64.6 °F 29.56 in SE 1.4 mph 11.5 mph 98% 0.32 in WeatherDisplay:10.37 W/m2 RA
01:50 65.4 °F 64.8 °F 29.56 in SSE 2.8 mph 5.8 mph 98% 0.33 in WeatherDisplay:10.37 W/m2 RA
01:55 65.5 °F 64.9 °F 29.55 in South 0.6 mph 11.5 mph 98% 0.33 in WeatherDisplay:10.37 W/m2 RA
02:00 65.3 °F 64.7 °F 29.54 in SE 0.7 mph   98% 0.32 in WeatherDisplay:10.37 W/m2 CLR
02:05 65.1 °F 64.5 °F 29.52 in Calm     98% 0.24 in WeatherDisplay:10.37 W/m2 CLR
02:10 65.0 °F 64.4 °F 29.52 in Calm     98% 0.09 in WeatherDisplay:10.37 W/m2 CLR
02:15 64.9 °F 64.3 °F 29.51 in Calm     98% 0.04 in WeatherDisplay:10.37 W/m2 CLR
02:20 64.8 °F 64.2 °F 29.52 in Calm     98% 0.04 in WeatherDisplay:10.37 W/m2 CLR
02:25 64.7 °F 64.1 °F 29.52 in Calm     98% 0.04 in WeatherDisplay:10.37 W/m2 CLR
02:30 64.7 °F 64.1 °F 29.51 in Calm     98% 0.04 in WeatherDisplay:10.37 W/m2 CLR
02:35 64.6 °F 64.0 °F 29.51 in Calm     98% 0.03 in WeatherDisplay:10.37 W/m2 CLR
02:40 64.4 °F 63.5 °F 29.50 in Calm     97% 0.03 in WeatherDisplay:10.37 W/m2 CLR
02:45 64.2 °F 63.3 °F 29.50 in Calm     97% 0.01 in WeatherDisplay:10.37 W/m2 CLR
02:50 63.9 °F 63.0 °F 29.50 in Calm     97% 0.00 in WeatherDisplay:10.37 W/m2 CLR
02:55 63.7 °F 62.8 °F 29.50 in Calm     97% 0.00 in WeatherDisplay:10.37 W/m2 CLR
03:00 63.6 °F 62.7 °F 29.51 in Calm     97% 0.00 in WeatherDisplay:10.37 W/m2 CLR
03:05 63.3 °F 62.4 °F 29.51 in Calm     97% 0.00 in WeatherDisplay:10.37 W/m2 CLR
03:10 63.0 °F 62.1 °F 29.51 in Calm     97% 0.00 in WeatherDisplay:10.37 W/m2 CLR
03:15 62.8 °F 61.9 °F 29.51 in Calm     97% 0.00 in WeatherDisplay:10.37 W/m2 CLR
03:20 62.7 °F 62.1 °F 29.51 in Calm     98% 0.00 in WeatherDisplay:10.37 W/m2 CLR
03:25 62.5 °F 61.6 °F 29.51 in Calm     97% 0.00 in WeatherDisplay:10.37 W/m2 CLR
03:30 62.3 °F 61.4 °F 29.51 in Calm     97% 0.00 in WeatherDisplay:10.37 W/m2 CLR
03:35 62.2 °F 61.6 °F 29.51 in Calm     98% 0.00 in WeatherDisplay:10.37 W/m2 CLR
03:40 62.0 °F 61.1 °F 29.52 in Calm     97% 0.00 in WeatherDisplay:10.37 W/m2 CLR
03:45 61.9 °F 61.0 °F 29.52 in Calm     97% 0.00 in WeatherDisplay:10.37 W/m2 CLR
03:50 61.8 °F 61.2 °F 29.52 in Calm     98% 0.00 in WeatherDisplay:10.37 W/m2 CLR
03:55 61.7 °F 61.1 °F 29.51 in Calm     98% 0.00 in WeatherDisplay:10.37 W/m2 CLR
04:00 61.6 °F 61.0 °F 29.50 in Calm     98% 0.00 in WeatherDisplay:10.37 W/m2 CLR
04:05 61.4 °F 60.8 °F 29.51 in Calm     98% 0.00 in WeatherDisplay:10.37 W/m2 CLR
04:10 61.2 °F 60.3 °F 29.51 in Calm     97% 0.00 in WeatherDisplay:10.37 W/m2 CLR
04:15 61.1 °F 60.5 °F 29.51 in Calm     98% 0.00 in WeatherDisplay:10.37 W/m2 CLR
04:20 61.0 °F 60.4 °F 29.51 in Calm     98% 0.01 in WeatherDisplay:10.37 W/m2 RA
04:25 60.9 °F 60.3 °F 29.52 in Calm     98% 0.01 in WeatherDisplay:10.37 W/m2 RA
04:30 60.7 °F 60.1 °F 29.52 in Calm     98% 0.01 in WeatherDisplay:10.37 W/m2 CLR
04:35 60.7 °F 60.1 °F 29.52 in Calm     98% 0.01 in WeatherDisplay:10.37 W/m2 CLR
04:40 60.6 °F 60.0 °F 29.53 in Calm     98% 0.01 in WeatherDisplay:10.37 W/m2 CLR
04:45 60.5 °F 59.9 °F 29.53 in Calm     98% 0.01 in WeatherDisplay:10.37 W/m2 CLR
04:50 60.5 °F 59.9 °F 29.53 in Calm     98% 0.01 in WeatherDisplay:10.37 W/m2 CLR
04:55 60.5 °F 59.9 °F 29.53 in Calm     98% 0.01 in WeatherDisplay:10.37 W/m2 CLR
05:00 60.7 °F 60.1 °F 29.54 in South 0.1 mph 4.6 mph 98% 0.01 in WeatherDisplay:10.37 W/m2 CLR
05:05 60.9 °F 60.3 °F 29.54 in SSE 1.2 mph   98% 0.01 in WeatherDisplay:10.37 W/m2 CLR
05:10 61.0 °F 60.4 °F 29.54 in SSE 0.3 mph 1.0 mph 98% 0.01 in WeatherDisplay:10.37 W/m2 CLR
05:15 61.1 °F 60.5 °F 29.55 in SSE 3.9 mph 5.8 mph 98% 0.01 in WeatherDisplay:10.37 W/m2 CLR
05:20 61.1 °F 60.5 °F 29.55 in South 0.8 mph   98% 0.00 in WeatherDisplay:10.37 W/m2 CLR
05:25 61.1 °F 60.5 °F 29.55 in Calm     98% 0.00 in WeatherDisplay:10.37 W/m2 CLR
05:30 61.1 °F 60.5 °F 29.55 in SSE 1.7 mph 4.6 mph 98% 0.00 in WeatherDisplay:10.37 W/m2 CLR
05:35 61.1 °F 60.5 °F 29.55 in Calm     98% 0.00 in WeatherDisplay:10.37 W/m2 CLR
05:40 61.0 °F 60.4 °F 29.55 in Calm     98% 0.00 in WeatherDisplay:10.37 W/m2 CLR
05:45 60.9 °F 60.3 °F 29.55 in SSE 0.6 mph 3.5 mph 98% 0.00 in WeatherDisplay:10.37 W/m2 CLR
05:50 60.8 °F 60.2 °F 29.55 in SSE 0.7 mph 7.0 mph 98% 0.00 in WeatherDisplay:10.37 W/m2 CLR
05:55 60.7 °F 60.1 °F 29.55 in SSE 2.7 mph 4.0 mph 98% 0.00 in WeatherDisplay:10.37 W/m2 CLR
06:00 60.6 °F 60.0 °F 29.56 in SSE 1.0 mph 4.6 mph 98% 0.00 in WeatherDisplay:10.37 W/m2 CLR
06:05 60.5 °F 59.9 °F 29.56 in SSE 0.1 mph 4.0 mph 98% 0.00 in WeatherDisplay:10.37 W/m2 CLR
06:10 60.4 °F 59.8 °F 29.56 in SSE 0.7 mph 3.5 mph 98% 0.00 in WeatherDisplay:10.37 W/m2 CLR
06:15 60.3 °F 59.7 °F 29.56 in SSE 1.4 mph 8.1 mph 98% 0.00 in WeatherDisplay:10.37 W/m2 CLR
06:20 60.3 °F 59.7 °F 29.57 in SSE 0.1 mph 3.5 mph 98% 0.00 in WeatherDisplay:10.37 W/m2 CLR
06:25 60.3 °F 59.7 °F 29.57 in SSE 3.4 mph 5.8 mph 98% 0.00 in WeatherDisplay:10.37 W/m2 CLR
06:30 60.2 °F 59.6 °F 29.57 in SSE 1.3 mph 5.8 mph 98% 0.00 in WeatherDisplay:10.37 W/m2 CLR
06:35 60.2 °F 59.6 °F 29.58 in SSE 1.2 mph 5.8 mph 98% 0.00 in WeatherDisplay:10.37 W/m2 CLR
06:40 60.1 °F 59.5 °F 29.58 in South 4.8 mph 11.5 mph 98% 0.00 in WeatherDisplay:10.37 W/m2 CLR
06:45 60.0 °F 59.1 °F 29.58 in Calm   1.0 mph 97% 0.00 in WeatherDisplay:10.37 W/m2 CLR
06:50 60.0 °F 59.1 °F 29.58 in SSE 0.3 mph 2.3 mph 97% 0.00 in WeatherDisplay:10.37 W/m2 CLR
06:55 60.0 °F 59.1 °F 29.59 in Calm     97% 0.00 in WeatherDisplay:10.37 W/m2 CLR
07:00 59.9 °F 59.0 °F 29.59 in SSE 0.9 mph 5.0 mph 97% 0.00 in WeatherDisplay:10.37 W/m2 CLR
07:05 60.0 °F 59.1 °F 29.60 in Calm     97% 0.00 in WeatherDisplay:10.37 W/m2 CLR
07:10 60.0 °F 59.1 °F 29.60 in SSE 0.3 mph 5.0 mph 97% 0.00 in WeatherDisplay:10.37 W/m2 CLR
07:15 60.0 °F 59.1 °F 29.60 in SSE 1.1 mph 4.0 mph 97% 0.00 in WeatherDisplay:10.37 W/m2 CLR
07:20 60.1 °F 59.2 °F 29.60 in SSE 2.0 mph 3.5 mph 97% 0.00 in WeatherDisplay:10.37 W/m2 CLR
07:25 60.1 °F 59.2 °F 29.60 in SSW 1.5 mph 6.9 mph 97% 0.00 in WeatherDisplay:10.37 W/m2 CLR
07:30 60.2 °F 59.3 °F 29.60 in SSE 1.6 mph 5.0 mph 97% 0.00 in WeatherDisplay:10.37 W/m2 CLR
07:35 60.2 °F 59.3 °F 29.60 in SSE 6.0 mph 10.0 mph 97% 0.00 in WeatherDisplay:10.37 W/m2 CLR
07:40 60.3 °F 59.4 °F 29.60 in SSE 1.8 mph 5.8 mph 97% 0.00 in WeatherDisplay:10.37 W/m2 CLR
07:45 60.4 °F 59.5 °F 29.60 in South 1.3 mph 4.0 mph 97% 0.00 in WeatherDisplay:10.37 W/m2 CLR
07:50 60.4 °F 59.5 °F 29.60 in South 4.1 mph 8.1 mph 97% 0.00 in WeatherDisplay:10.37 W/m2 CLR
07:55 60.5 °F 59.4 °F 29.61 in SSW 3.5 mph 8.1 mph 96% 0.00 in WeatherDisplay:10.37 W/m2 CLR
08:00 60.8 °F 59.7 °F 29.61 in SSE 1.2 mph 8.1 mph 96% 0.00 in WeatherDisplay:10.37 W/m2 CLR
08:05 60.9 °F 59.5 °F 29.61 in SSE 0.2 mph 2.0 mph 95% 0.00 in WeatherDisplay:10.37 W/m2 CLR
08:10 61.0 °F 59.6 °F 29.61 in SW 1.4 mph 10.4 mph 95% 0.00 in WeatherDisplay:10.37 W/m2 CLR
08:15 61.1 °F 59.4 °F 29.61 in South 2.1 mph 10.4 mph 94% 0.00 in WeatherDisplay:10.37 W/m2 CLR
08:20 61.2 °F 59.5 °F 29.60 in SSE 3.4 mph 8.0 mph 94% 0.00 in WeatherDisplay:10.37 W/m2 CLR
08:25 61.4 °F 59.4 °F 29.61 in ESE 1.3 mph 9.2 mph 93% 0.00 in WeatherDisplay:10.37 W/m2 CLR
08:30 61.6 °F 59.3 °F 29.61 in SSE 2.9 mph 5.0 mph 92% 0.00 in WeatherDisplay:10.37 W/m2 CLR
08:35 61.7 °F 59.0 °F 29.61 in SSE 2.3 mph 11.5 mph 91% 0.00 in WeatherDisplay:10.37 W/m2 CLR
08:40 61.8 °F 58.8 °F 29.61 in SE 5.6 mph 11.5 mph 90% 0.00 in WeatherDisplay:10.37 W/m2 CLR
08:45 62.0 °F 59.3 °F 29.61 in SSE 0.6 mph 11.5 mph 91% 0.00 in WeatherDisplay:10.37 W/m2 CLR
08:46 62.1 °F 59.4 °F 29.61 in SE 2.3 mph 11.5 mph 91% 0.00 in WeatherDisplay:10.37 W/m2 CLR
08:51 62.2 °F 59.2 °F 29.62 in SSW 3.7 mph 10.4 mph 90% 0.00 in WeatherDisplay:10.37 W/m2 CLR
08:56 62.2 °F 58.9 °F 29.61 in SSE 3.5 mph 11.5 mph 89% 0.00 in WeatherDisplay:10.37 W/m2 CLR
09:01 62.3 °F 59.3 °F 29.62 in Calm   11.5 mph 90% 0.00 in WeatherDisplay:10.37 W/m2 CLR
09:06 62.7 °F 59.4 °F 29.62 in SSE 4.8 mph 10.4 mph 89% 0.00 in WeatherDisplay:10.37 W/m2 CLR
09:11 62.9 °F 59.0 °F 29.63 in South 3.5 mph 13.8 mph 87% 0.00 in WeatherDisplay:10.37 W/m2 CLR
09:16 63.1 °F 59.5 °F 29.63 in SE 3.8 mph 10.4 mph 88% 0.00 in WeatherDisplay:10.37 W/m2 CLR
09:21 63.1 °F 59.5 °F 29.63 in SSE 2.2 mph 2.2 mph 88% 0.00 in WeatherDisplay:10.37 W/m2 CLR
09:26 63.1 °F 58.8 °F 29.63 in SSE 6.4 mph 11.5 mph 86% 0.00 in WeatherDisplay:10.37 W/m2 CLR
09:28 63.1 °F 59.2 °F 29.63 in South 7.8 mph 12.7 mph 87% 0.00 in WeatherDisplay:10.37 W/m2 CLR
09:33 63.1 °F 58.5 °F 29.63 in South 5.5 mph 10.4 mph 85% 0.00 in WeatherDisplay:10.37 W/m2 CLR
09:38 63.3 °F 59.0 °F 29.63 in SE 1.0 mph 5.8 mph 86% 0.00 in WeatherDisplay:10.37 W/m2 CLR
09:43 63.8 °F 59.2 °F 29.63 in South 1.6 mph 5.8 mph 85% 0.00 in WeatherDisplay:10.37 W/m2 CLR
09:48 64.0 °F 59.1 °F 29.63 in South 1.1 mph 3.5 mph 84% 0.00 in WeatherDisplay:10.37 W/m2 CLR
09:53 64.4 °F 58.8 °F 29.63 in SSE 1.4 mph 5.8 mph 82% 0.00 in WeatherDisplay:10.37 W/m2 CLR
09:58 64.8 °F 59.2 °F 29.63 in SW 1.1 mph 4.6 mph 82% 0.00 in WeatherDisplay:10.37 W/m2 CLR
10:03 64.9 °F 58.2 °F 29.63 in South 4.3 mph 8.1 mph 79% 0.00 in WeatherDisplay:10.37 W/m2 CLR
10:08 64.9 °F 57.9 °F 29.63 in SE 1.8 mph 6.9 mph 78% 0.00 in WeatherDisplay:10.37 W/m2 CLR
10:13 65.4 °F 58.7 °F 29.63 in SSE 3.5 mph 9.2 mph 79% 0.00 in WeatherDisplay:10.37 W/m2 CLR
10:18 65.7 °F 58.3 °F 29.63 in ESE 3.0 mph 11.5 mph 77% 0.00 in WeatherDisplay:10.37 W/m2 CLR
10:23 65.8 °F 58.4 °F 29.63 in SSE 3.4 mph 11.5 mph 77% 0.00 in WeatherDisplay:10.37 W/m2 CLR
10:28 65.8 °F 58.0 °F 29.63 in WSW 7.7 mph 15.0 mph 76% 0.00 in WeatherDisplay:10.37 W/m2 CLR
10:33 65.9 °F 58.8 °F 29.64 in South 5.3 mph 11.5 mph 78% 0.00 in WeatherDisplay:10.37 W/m2 CLR
10:38 66.1 °F 58.3 °F 29.64 in SSE 5.1 mph 12.7 mph 76% 0.00 in WeatherDisplay:10.37 W/m2 CLR
10:43 66.2 °F 58.4 °F 29.64 in SSE 6.2 mph 9.2 mph 76% 0.00 in WeatherDisplay:10.37 W/m2 CLR
10:48 66.5 °F 59.1 °F 29.64 in South 2.0 mph 4.6 mph 77% 0.00 in WeatherDisplay:10.37 W/m2 CLR
10:53 66.9 °F 59.1 °F 29.64 in North 1.0 mph 5.0 mph 76% 0.00 in WeatherDisplay:10.37 W/m2 CLR
10:58 67.4 °F 58.4 °F 29.64 in SSE 5.5 mph 11.5 mph 73% 0.00 in WeatherDisplay:10.37 W/m2 CLR
11:03 67.4 °F 58.8 °F 29.64 in SE 0.4 mph 4.6 mph 74% 0.00 in WeatherDisplay:10.37 W/m2 CLR
11:08 67.7 °F 58.0 °F 29.65 in SE 2.7 mph 11.5 mph 71% 0.00 in WeatherDisplay:10.37 W/m2 CLR
11:13 68.0 °F 57.8 °F 29.64 in SW 0.5 mph 3.5 mph 70% 0.00 in WeatherDisplay:10.37 W/m2 CLR
11:18 68.3 °F 58.1 °F 29.64 in SSE 4.7 mph 11.5 mph 70% 0.00 in WeatherDisplay:10.37 W/m2 CLR
11:23 68.4 °F 58.6 °F 29.65 in ENE 2.1 mph 8.1 mph 71% 0.00 in WeatherDisplay:10.37 W/m2 CLR
11:28 68.7 °F 58.5 °F 29.65 in SSE 3.6 mph 15.0 mph 70% 0.00 in WeatherDisplay:10.37 W/m2 CLR
11:33 68.9 °F 59.1 °F 29.64 in SSW 2.7 mph 6.9 mph 71% 0.00 in WeatherDisplay:10.37 W/m2 CLR
11:38 68.9 °F 58.3 °F 29.65 in South 2.4 mph 8.1 mph 69% 0.00 in WeatherDisplay:10.37 W/m2 CLR
11:43 69.1 °F 58.9 °F 29.65 in SW 3.2 mph 6.9 mph 70% 0.00 in WeatherDisplay:10.37 W/m2 CLR
11:48 69.3 °F 59.1 °F 29.65 in SE 1.8 mph 6.9 mph 70% 0.00 in WeatherDisplay:10.37 W/m2 CLR
11:51 69.5 °F 59.7 °F 29.65 in SSE 3.0 mph 10.0 mph 71% 0.00 in WeatherDisplay:10.37 W/m2 CLR
11:56 69.7 °F 59.1 °F 29.65 in ENE 2.8 mph 6.9 mph 69% 0.00 in WeatherDisplay:10.37 W/m2 CLR
12:01 70.2 °F 59.1 °F 29.64 in NW 2.8 mph 8.0 mph 68% 0.00 in WeatherDisplay:10.37 W/m2 CLR
12:06 70.2 °F 59.1 °F 29.64 in NE 4.2 mph 11.5 mph 68% 0.00 in WeatherDisplay:10.37 W/m2 CLR
12:11 70.0 °F 58.5 °F 29.64 in South 10.5 mph 13.8 mph 67% 0.00 in WeatherDisplay:10.37 W/m2 CLR
12:16 70.1 °F 58.2 °F 29.64 in ESE 3.4 mph 3.5 mph 66% 0.00 in WeatherDisplay:10.37 W/m2 CLR
12:21 70.0 °F 56.4 °F 29.64 in SE 5.6 mph 12.7 mph 62% 0.00 in WeatherDisplay:10.37 W/m2 CLR
12:26 70.1 °F 57.4 °F 29.64 in SE 0.1 mph 2.3 mph 64% 0.00 in WeatherDisplay:10.37 W/m2 CLR
12:31 70.3 °F 56.2 °F 29.63 in SE 1.4 mph 12.7 mph 61% 0.00 in WeatherDisplay:10.37 W/m2 CLR
12:36 70.4 °F 57.2 °F 29.63 in SE 6.7 mph 8.0 mph 63% 0.00 in WeatherDisplay:10.37 W/m2 CLR
12:41 70.4 °F 56.3 °F 29.64 in South 4.2 mph 8.1 mph 61% 0.00 in WeatherDisplay:10.37 W/m2 CLR
12:46 70.6 °F 56.5 °F 29.64 in SE 2.0 mph 12.7 mph 61% 0.00 in WeatherDisplay:10.37 W/m2 CLR
12:51 70.6 °F 56.0 °F 29.64 in South 1.7 mph 9.2 mph 60% 0.00 in WeatherDisplay:10.37 W/m2 CLR
12:56 71.1 °F 57.9 °F 29.64 in East 1.1 mph 3.5 mph 63% 0.00 in WeatherDisplay:10.37 W/m2 CLR
13:01 71.3 °F 57.2 °F 29.64 in SSE 2.6 mph 15.0 mph 61% 0.00 in WeatherDisplay:10.37 W/m2 CLR
13:06 71.3 °F 56.2 °F 29.64 in East 1.9 mph 12.7 mph 59% 0.00 in WeatherDisplay:10.37 W/m2 CLR
13:16 71.5 °F 57.3 °F 29.64 in SSE 1.2 mph 9.0 mph 61% 0.00 in WeatherDisplay:10.37 W/m2 CLR
13:21 71.7 °F 55.7 °F 29.64 in ESE 1.5 mph 10.4 mph 57% 0.00 in WeatherDisplay:10.37 W/m2 CLR
13:26 72.0 °F 55.9 °F 29.63 in SSE 4.2 mph 9.2 mph 57% 0.00 in WeatherDisplay:10.37 W/m2 CLR
13:31 72.0 °F 57.4 °F 29.63 in SSE 4.2 mph 6.0 mph 60% 0.00 in WeatherDisplay:10.37 W/m2 CLR
13:36 72.1 °F 56.0 °F 29.63 in SW 7.3 mph 12.7 mph 57% 0.00 in WeatherDisplay:10.37 W/m2 CLR
13:41 72.2 °F 56.6 °F 29.64 in ESE 1.6 mph 11.5 mph 58% 0.00 in WeatherDisplay:10.37 W/m2 CLR
13:46 72.3 °F 56.2 °F 29.64 in South 5.8 mph 21.9 mph 57% 0.00 in WeatherDisplay:10.37 W/m2 CLR
13:51 72.0 °F 56.9 °F 29.64 in SSE 3.0 mph 8.1 mph 59% 0.00 in WeatherDisplay:10.37 W/m2 CLR
13:56 72.4 °F 57.7 °F 29.64 in SE 1.3 mph 6.9 mph 60% 0.00 in WeatherDisplay:10.37 W/m2 CLR
14:01 72.8 °F 55.7 °F 29.64 in NE 5.6 mph 12.7 mph 55% 0.00 in WeatherDisplay:10.37 W/m2 CLR
14:06 72.9 °F 57.3 °F 29.64 in SSE 5.0 mph 11.5 mph 58% 0.00 in WeatherDisplay:10.37 W/m2 CLR
14:11 73.0 °F 57.3 °F 29.64 in South 3.5 mph 11.5 mph 58% 0.00 in WeatherDisplay:10.37 W/m2 CLR
14:16 72.8 °F 57.2 °F 29.64 in SSE 4.3 mph 10.0 mph 58% 0.00 in WeatherDisplay:10.37 W/m2 CLR
14:21 72.9 °F 56.8 °F 29.64 in South 10.0 mph 18.4 mph 57% 0.00 in WeatherDisplay:10.37 W/m2 CLR
14:26 73.0 °F 56.9 °F 29.64 in East 7.2 mph 17.3 mph 57% 0.00 in WeatherDisplay:10.37 W/m2 CLR
14:31 73.0 °F 56.9 °F 29.64 in SSE 3.0 mph 10.4 mph 57% 0.00 in WeatherDisplay:10.37 W/m2 CLR
14:36 73.5 °F 57.8 °F 29.64 in SSW 4.8 mph 11.0 mph 58% 0.00 in WeatherDisplay:10.37 W/m2 CLR
14:41 73.8 °F 57.1 °F 29.64 in ESE 5.5 mph 12.7 mph 56% 0.00 in WeatherDisplay:10.37 W/m2 CLR
14:46 73.6 °F 57.4 °F 29.64 in South 1.9 mph 10.4 mph 57% 0.00 in WeatherDisplay:10.37 W/m2 CLR
14:51 73.3 °F 57.1 °F 29.64 in ENE 3.6 mph 9.2 mph 57% 0.00 in WeatherDisplay:10.37 W/m2 CLR
14:56 73.4 °F 57.2 °F 29.65 in SE 5.6 mph 11.5 mph 57% 0.00 in WeatherDisplay:10.37 W/m2 CLR
15:01 72.7 °F 57.1 °F 29.65 in SE 2.3 mph 9.2 mph 58% 0.00 in WeatherDisplay:10.37 W/m2 CLR
15:06 73.0 °F 57.3 °F 29.64 in SSW 3.8 mph 10.4 mph 58% 0.00 in WeatherDisplay:10.37 W/m2 CLR
15:11 73.3 °F 57.6 °F 29.65 in SSE 1.7 mph 10.4 mph 58% 0.00 in WeatherDisplay:10.37 W/m2 CLR
15:16 73.3 °F 58.1 °F 29.65 in ENE 1.8 mph 11.5 mph 59% 0.00 in WeatherDisplay:10.37 W/m2 CLR
15:21 72.9 °F 56.8 °F 29.65 in SE 5.5 mph 11.5 mph 57% 0.00 in WeatherDisplay:10.37 W/m2 CLR
15:26 72.3 °F 57.2 °F 29.65 in South 5.7 mph 11.5 mph 59% 0.00 in WeatherDisplay:10.37 W/m2 CLR
15:31 72.1 °F 57.0 °F 29.65 in East 1.6 mph 11.5 mph 59% 0.00 in WeatherDisplay:10.37 W/m2 CLR
15:36 71.7 °F 56.6 °F 29.65 in ESE 1.9 mph 11.5 mph 59% 0.00 in WeatherDisplay:10.37 W/m2 CLR
15:41 71.2 °F 56.6 °F 29.66 in South 5.3 mph 10.0 mph 60% 0.00 in WeatherDisplay:10.37 W/m2 CLR
15:46 71.2 °F 56.6 °F 29.65 in SE 2.9 mph 15.0 mph 60% 0.00 in WeatherDisplay:10.37 W/m2 CLR
15:51 72.1 °F 56.5 °F 29.65 in SSE 4.3 mph 10.4 mph 58% 0.00 in WeatherDisplay:10.37 W/m2 CLR
Gayle H. Riggsbee Observatory (GHRO)
Compliments of Weather Underground - 1.25 mb